ACT        NSW        VIC        QLD        SA        WA        TAS        NT        INFO        CALC            by VK5ZD

  Atmospheric Gas Attenuation - ITU Rec 676-11   --------------- db/100km ---------------
NT Stations Date Time Temp RH % AH g/m3 Dew Point Wind Direction Speed kph Gust kph Barometer mB Rainfall Since 9am 24GHz 47GHz 76GHz 122GHz 134GHz 241GHz
Alice Springs Airport 15 02:10 9.8 86 7.98 7.6 9 9 1020.8 0 18.4 26.3 39.6 103.8 95.7 328.4
Arltunga 14 15:00 26 23 5.6 3.4 2 1018.8 0 12.8 18.9 24.8 64.3 52.8 179.7
Batchelor 15 02:10 16.6 95 13.42 15.8 0 0 1013.3 0 29.8 33.3 58.7 154.9 161.5 559.4
Borroloola 15 02:10 10.8 82 8.11 7.9 0 0 1014.5 0 18.7 26.0 39.4 103.2 95.7 328.7
Bradshaw 15 02:10 16.9 54 7.77 7.5 1013.9 0 17.7 23.8 35.2 92.1 84.3 289.4
Bradshaw-Angallari Valley (Defence) 15 02:10 17.9 53 8.09 8.4 0 0 1013.1 0 18.3 24.0 35.9 94.1 87.0 299.3
Bradshaw-Koolendong Valley 15 02:10 11.7 87 9.1 9.6 0 0 1013.1 0 20.8 27.3 42.9 112.8 108.0 371.7
Bulman 15 02:10 16.1 95 13.02 15.3 0 0 1013.9 0 28.9 32.8 57.3 151.2 156.7 542.5
Cape Wessel 15 02:10 25.3 75 17.56 20.5 26 30 1012.6 0 37.9 37.2 70.2 185.6 202.0 701.7
Central Arnhem Plateau 15 02:10 15.7 69 9.23 10 0 0 1013.6 0 20.8 26.4 41.4 108.7 104.3 359.2
Centre Island 15 02:10 20.2 95 16.61 19.4 17 19 1014.1 0 36.3 37.8 70.6 186.6 201.6 699.3
Charles Point 15 02:10 21 94 17.22 20 7 9 1012.9 0 37.6 38.5 72.7 192.1 208.7 724.3
Croker Island Airport 15 02:10 21 99 18.13 20.8 0 0 1012.9 0 39.5 40.3 77.1 203.8 223.1 774.3
Curtin Springs 14 15:00 26.5 24 6.01 4.7 0 1017.3 0 13.6 19.2 25.8 67.2 56.5 193.0
Daly Waters 15 02:10 10.4 90 8.68 8.8 6 7 1014.6 0 19.9 27.1 41.9 110.1 104.1 357.8
Darwin Airport 15 02:10 20.7 90 16.2 19 6 6 1013.5 0 35.4 36.7 68.2 180.1 193.8 672.5
Delamere 15 02:10 17.4 54 8 8 6 7 1013.3 0 18.1 24.0 35.8 93.8 86.5 297.3
Douglas River 15 02:10 12.8 90 10.08 11.2 0 0 1013.3 0 22.8 28.7 46.5 122.3 120.0 414.1
East Point 15 02:10 20.8 97 17.56 20.3 4 4 1013.1 0 38.3 39.3 74.5 197.0 214.7 744.9
Gove Airport 15 02:10 20.3 95 16.71 19.5 0 0 1012.9 0 36.5 37.9 70.9 187.4 202.7 703.2
Groote Eylandt Airport 15 02:10 17 92 13.31 15.7 1013.5 0 29.5 32.9 57.9 152.8 159.1 550.9
Gunn Point 15 02:10 15.1 97 12.51 14.7 0 0 1013.1 0 27.9 32.2 55.7 146.9 151.1 522.8
Jabiru 14 14:00 33.8 20 7.43 7.7 15 26 1010.7 0 16.3 19.3 27.6 72.1 64.9 223.4
Jervois 15 02:10 13.4 61 7.09 6 9 11 1019.5 0 16.4 23.8 34.3 89.8 79.8 273.3
Kangaroo Flats (Defence) 15 02:10 19 98 15.97 18.6 0 0 1013.1 0 35.1 37.0 68.6 181.2 194.7 675.2
Knuckey Lagoon 15 02:10 17.5 97 14.46 17 0 0 1013.1 0 31.9 34.8 62.8 165.8 175.2 607.0
Lajamanu 15 02:10 13.1 76 8.67 9 6 7 1015.9 0 19.8 26.3 40.6 106.4 100.4 345.5
Maningrida Airport 15 02:10 21.4 97 18.18 20.9 9 9 1012.8 0 39.6 40.2 76.9 203.4 222.7 772.9
Mcarthur River Mine 15 02:10 11.7 74 7.74 7.2 6 6 1014.4 0 17.8 25.1 37.4 98.1 89.7 307.7
Mccluer Island 15 02:10 26.5 80 20.03 22.8 20 22 1012.6 0 43.0 41.2 80.5 212.9 236.0 819.9
Middle Point 15 02:10 18.3 96 15.01 17.6 2 2 1013.4 0 33.1 35.5 64.7 170.9 181.7 629.8
Milingimbi 15 02:10 20.4 95 16.8 19.6 0 0 1013.1 0 36.7 38.0 71.2 188.3 203.8 707.3
Mount Bundey North (Defence) 15 02:10 19.8 82 14 16.6 0 0 1013.1 0 30.8 33.1 58.9 155.4 163.2 565.5
Mount Bundey South (Defence) 15 02:10 16.7 73 10.37 11.8 0 0 1013.1 0 23.2 27.9 45.4 119.5 118.0 407.4
Murganella Airstrip 15 02:10 17.4 97 14.37 16.9 0 0 1013 0 31.7 34.7 62.4 164.9 174.0 603.0
Ngayawili (Elcho Island) 15 02:10 19.8 97 16.57 19.3 7 9 1013.4 0 36.3 37.8 70.7 186.9 201.9 700.5
Ngukurr Aws 15 02:10 14 99 11.94 13.8 0 0 1013.8 0 26.8 31.6 53.9 142.2 144.9 501.0
Noonamah 15 02:10 16.9 85 12.22 14.3 0 0 1013.1 0 27.2 31.0 53.1 140.1 143.4 496.1
Oenpelli Airport 15 02:10 21.4 92 17.25 20 4 4 1013.3 0 37.6 38.4 72.5 191.5 208.1 722.3
Pirlangimpi 15 02:10 19 98 15.97 18.6 0 0 1012.8 0 35.1 37.0 68.6 181.2 194.6 675.0
Point Fawcett 15 02:10 19.6 98 16.54 19.3 9 9 1012.9 0 36.2 37.8 70.7 187.0 201.9 700.5
Rabbit Flat 15 02:10 11 90 9.01 9.4 0 0 1016.8 0 20.6 27.6 43.1 113.2 108.0 371.7
Tennant Creek 15 02:10 15.6 51 6.78 5.5 15 17 1016.4 0 15.6 22.7 32.1 84.0 73.7 252.1
Territory Grape Farm 15 02:10 12.4 60 6.56 4.8 9 11 1020.1 0 15.3 23.3 32.8 85.5 74.2 253.4
The Granites Airport 15 02:10 18.2 46 7.15 6.4 7 7 1013.1 0 16.3 22.5 32.3 84.6 75.4 258.6
Tindal 15 02:10 13.3 73 8.43 8.6 0 0 1013.5 0 19.3 25.8 39.4 103.3 96.8 332.8
Victoria River Downs 15 02:10 14.5 82 10.2 11.5 4 4 1014.2 0 23.0 28.4 46.0 121.1 119.2 411.2
Wadeye (Port Keats) 15 02:10 16.8 93 13.3 15.7 0 0 1012.9 0 29.5 33.0 58.0 153.0 159.3 551.6
Walungurru (Kintore) 15 02:10 19.2 38 6.27 4.6 26 30 1018.4 0 14.4 21.2 29.1 75.8 64.7 221.1
Warruwi 15 02:10 22.8 98 19.91 22.4 4 4 1013.2 0 43.1 42.9 84.0 222.2 246.2 854.9
Yulara 15 02:10 14.5 71 8.83 9.3 7 9 1020.9 0 20.0 26.3 40.7 106.8 101.2 348.2

Last Refresh: 15-Jun-2024 02:14:25

Bureau of Meteorology